createdAt,value
2018-02-18T00:00:56.397Z,102604.73
2018-02-18T00:03:24.769Z,102614.40
2018-02-18T00:05:53.629Z,102605.53
2018-02-18T00:08:22.025Z,102602.08
2018-02-18T00:10:50.392Z,102598.80
2018-02-18T00:13:18.741Z,102607.17
2018-02-18T00:15:47.077Z,102614.46
2018-02-18T00:18:15.427Z,102601.80
2018-02-18T00:20:43.834Z,102608.15
2018-02-18T00:23:12.299Z,102607.41
2018-02-18T00:25:40.618Z,102605.61
2018-02-18T00:28:09.744Z,102610.97
2018-02-18T00:30:38.117Z,102613.38
2018-02-18T00:33:06.453Z,102607.72
2018-02-18T00:35:34.881Z,102610.57
2018-02-18T00:38:03.238Z,102609.67
2018-02-18T00:40:32.334Z,102607.17
2018-02-18T00:43:00.758Z,102613.64
2018-02-18T00:45:29.086Z,102615.47
2018-02-18T00:47:57.444Z,102618.19
2018-02-18T00:50:26.388Z,102619.08
2018-02-18T00:52:54.713Z,102619.78
2018-02-18T00:55:23.044Z,102618.02
2018-02-18T00:57:52.176Z,102612.55
2018-02-18T01:00:20.552Z,102623.95
2018-02-18T01:02:48.958Z,102619.64
2018-02-18T01:05:17.449Z,102615.08
2018-02-18T01:07:45.795Z,102622.59
2018-02-18T01:10:14.141Z,102624.30
2018-02-18T01:12:42.625Z,102622.09
2018-02-18T01:15:10.977Z,102621.27
2018-02-18T01:17:39.416Z,102614.25
2018-02-18T01:20:07.786Z,102619.34
2018-02-18T01:22:36.169Z,102617.61
2018-02-18T01:25:04.523Z,102619.21
2018-02-18T01:27:33.028Z,102625.77
2018-02-18T01:30:01.372Z,102620.46
2018-02-18T01:32:30.527Z,102623.58
2018-02-18T01:34:59.482Z,102626.30
2018-02-18T01:37:27.817Z,102624.45
2018-02-18T01:39:56.162Z,102629.55
2018-02-18T01:42:24.541Z,102621.08
2018-02-18T01:44:52.892Z,102610.13
2018-02-18T01:47:21.260Z,102615.80
2018-02-18T01:49:49.694Z,102618.05
2018-02-18T01:52:18.053Z,102614.92
2018-02-18T01:54:46.408Z,102619.92
2018-02-18T01:57:15.198Z,102624.95
2018-02-18T01:59:43.617Z,102626.06
2018-02-18T02:02:11.985Z,102621.52
2018-02-18T02:04:40.395Z,102611.26
2018-02-18T02:07:08.768Z,102621.72
2018-02-18T02:09:37.106Z,102619.27
2018-02-18T02:12:05.466Z,102621.08
2018-02-18T02:14:33.777Z,102614.30
2018-02-18T02:17:02.123Z,102620.54
2018-02-18T02:19:31.539Z,102624.33
2018-02-18T02:21:59.891Z,102628.98
2018-02-18T02:24:28.998Z,102630.00
2018-02-18T02:26:58.163Z,102631.78
2018-02-18T02:29:26.580Z,102632.02
2018-02-18T02:31:55.681Z,102624.13
2018-02-18T02:34:24.036Z,102620.97
2018-02-18T02:36:52.457Z,102625.66
2018-02-18T02:39:20.840Z,102622.31
2018-02-18T02:41:49.414Z,102631.02
2018-02-18T02:44:17.777Z,102617.33
2018-02-18T02:46:46.873Z,102618.83
2018-02-18T02:49:15.248Z,102617.78
2018-02-18T02:51:44.411Z,102622.35
2018-02-18T02:54:12.751Z,102618.56
2018-02-18T02:56:41.184Z,102617.69
2018-02-18T02:59:09.527Z,102620.77
2018-02-18T03:01:37.860Z,102626.09
2018-02-18T03:04:07.112Z,102628.78
2018-02-18T03:06:35.468Z,102624.44
2018-02-18T03:09:03.845Z,102622.43
2018-02-18T03:11:32.219Z,102621.68
2018-02-18T03:14:00.586Z,102620.66
2018-02-18T03:16:29.704Z,102625.43
2018-02-18T03:18:58.101Z,102620.09
2018-02-18T03:21:26.446Z,102617.50
2018-02-18T03:23:54.817Z,102620.06
2018-02-18T03:26:24.418Z,102624.39
2018-02-18T03:28:52.772Z,102618.63
2018-02-18T03:31:21.154Z,102619.20
2018-02-18T03:33:49.522Z,102615.70
2018-02-18T03:36:17.866Z,102612.67
2018-02-18T03:38:46.220Z,102619.63
2018-02-18T03:41:14.600Z,102612.47
2018-02-18T03:43:42.966Z,102611.21
2018-02-18T03:46:11.316Z,102603.62
2018-02-18T03:48:40.054Z,102608.95
2018-02-18T03:51:08.386Z,102612.56
2018-02-18T03:53:36.708Z,102610.22
2018-02-18T03:56:05.069Z,102613.58
2018-02-18T03:58:34.161Z,102613.39
2018-02-18T04:01:02.506Z,102620.42
2018-02-18T04:03:30.908Z,102616.37
2018-02-18T04:05:59.389Z,102618.24
2018-02-18T04:08:27.744Z,102614.64
2018-02-18T04:10:56.397Z,102614.89
2018-02-18T04:13:24.756Z,102618.63
2018-02-18T04:15:53.284Z,102620.04
2018-02-18T04:18:21.669Z,102626.09
2018-02-18T04:20:50.047Z,102636.30
2018-02-18T04:23:18.394Z,102635.38
2018-02-18T04:25:46.775Z,102629.86
2018-02-18T04:28:15.157Z,102638.59
2018-02-18T04:30:43.562Z,102653.30
2018-02-18T04:33:12.394Z,102643.34
2018-02-18T04:35:40.751Z,102640.52
2018-02-18T04:38:09.870Z,102644.36
2018-02-18T04:40:39.021Z,102647.07
2018-02-18T04:43:07.376Z,102649.04
2018-02-18T04:45:35.730Z,102651.59
2018-02-18T04:48:04.972Z,102657.47
2018-02-18T04:50:33.352Z,102647.20
2018-02-18T04:53:01.807Z,102649.14
2018-02-18T04:55:30.310Z,102658.04
2018-02-18T04:57:58.731Z,102664.66
2018-02-18T05:00:27.080Z,102672.35
2018-02-18T05:02:55.474Z,102665.09
2018-02-18T05:05:23.880Z,102672.92
2018-02-18T05:07:53.018Z,102669.38
2018-02-18T05:10:21.455Z,102676.27
2018-02-18T05:12:49.937Z,102678.06
2018-02-18T05:15:18.318Z,102670.27
2018-02-18T05:17:47.044Z,102669.23
2018-02-18T05:20:15.501Z,102673.45
2018-02-18T05:22:44.682Z,102672.15
2018-02-18T05:25:13.169Z,102672.78
2018-02-18T05:27:41.644Z,102669.95
2018-02-18T05:30:09.996Z,102669.31
2018-02-18T05:32:38.408Z,102675.06
2018-02-18T05:35:07.714Z,102677.77
2018-02-18T05:37:36.289Z,102680.27
2018-02-18T05:40:04.774Z,102682.95
2018-02-18T05:42:33.158Z,102682.25
2018-02-18T05:45:01.532Z,102681.61
2018-02-18T05:47:29.992Z,102678.97
2018-02-18T05:49:59.322Z,102681.76
2018-02-18T05:52:28.572Z,102686.34
2018-02-18T05:54:57.025Z,102698.09
2018-02-18T05:57:25.515Z,102699.86
2018-02-18T05:59:53.958Z,102698.72
2018-02-18T06:02:22.614Z,102696.63
2018-02-18T06:04:51.125Z,102696.35
2018-02-18T06:07:19.609Z,102701.19
2018-02-18T06:09:48.107Z,102706.74
2018-02-18T06:12:16.580Z,102700.91
2018-02-18T06:14:45.892Z,102703.55
2018-02-18T06:17:14.325Z,102704.29
2018-02-18T06:19:42.642Z,102705.53
2018-02-18T06:22:11.025Z,102705.71
2018-02-18T06:24:40.424Z,102709.47
2018-02-18T06:27:08.796Z,102706.52
2018-02-18T06:29:37.193Z,102702.67
2018-02-18T06:32:05.578Z,102711.37
2018-02-18T06:34:34.755Z,102708.27
2018-02-18T06:37:03.193Z,102705.13
2018-02-18T06:39:31.544Z,102716.75
2018-02-18T06:41:59.957Z,102702.77
2018-02-18T06:44:28.372Z,102703.92
2018-02-18T06:47:00.012Z,102702.19
2018-02-18T06:49:28.358Z,102705.39
2018-02-18T06:51:56.785Z,102703.99
2018-02-18T06:54:25.479Z,102708.30
2018-02-18T06:56:54.665Z,102703.51
2018-02-18T06:59:23.007Z,102696.02
2018-02-18T07:01:51.431Z,102701.08
2018-02-18T07:04:19.729Z,102694.24
2018-02-18T07:06:48.894Z,102693.94
2018-02-18T07:09:17.486Z,102697.94
2018-02-18T07:11:45.932Z,102684.16
2018-02-18T07:14:14.338Z,102690.63
2018-02-18T07:16:42.796Z,102684.31
2018-02-18T07:19:11.181Z,102685.30
2018-02-18T07:21:39.717Z,102687.96
2018-02-18T07:24:08.855Z,102686.69
2018-02-18T07:26:37.375Z,102687.14
2018-02-18T07:29:05.931Z,102692.16
2018-02-18T07:31:34.634Z,102685.31
2018-02-18T07:34:03.050Z,102686.33
2018-02-18T07:36:31.478Z,102680.44
2018-02-18T07:38:59.903Z,102677.81
2018-02-18T07:41:29.104Z,102683.22
2018-02-18T07:43:57.570Z,102683.63
2018-02-18T07:46:26.050Z,102683.69
2018-02-18T07:48:54.490Z,102683.38
2018-02-18T07:51:23.020Z,102675.87
2018-02-18T07:53:52.559Z,102679.05
2018-02-18T07:56:21.008Z,102685.56
2018-02-18T07:58:49.348Z,102689.58
2018-02-18T08:01:17.762Z,102686.03
2018-02-18T08:03:46.139Z,102677.21
2018-02-18T08:06:14.464Z,102685.25
2018-02-18T08:08:43.000Z,102684.57
2018-02-18T08:11:11.373Z,102678.45
2018-02-18T08:13:39.700Z,102684.63
2018-02-18T08:16:08.715Z,102684.45
2018-02-18T08:18:37.139Z,102677.36
2018-02-18T08:21:06.257Z,102670.98
2018-02-18T08:23:35.417Z,102666.93
2018-02-18T08:26:03.730Z,102665.19
2018-02-18T08:28:32.832Z,102664.58
2018-02-18T08:31:01.204Z,102668.84
2018-02-18T08:33:30.344Z,102661.95
2018-02-18T08:35:58.759Z,102663.75
2018-02-18T08:38:27.337Z,102660.66
2018-02-18T08:40:56.512Z,102665.30
2018-02-18T08:43:24.860Z,102667.66
2018-02-18T08:45:53.369Z,102677.13
2018-02-18T08:48:21.855Z,102668.48
2018-02-18T08:50:50.204Z,102663.97
2018-02-18T08:53:18.625Z,102665.74
2018-02-18T08:55:47.066Z,102666.53
2018-02-18T08:58:15.518Z,102668.95
2018-02-18T09:00:44.094Z,102668.91
2018-02-18T09:03:12.458Z,102671.61
2018-02-18T09:05:40.990Z,102676.42
2018-02-18T09:08:09.511Z,102677.91
2018-02-18T09:10:37.911Z,102673.00
2018-02-18T09:13:06.291Z,102675.16
2018-02-18T09:15:35.467Z,102676.56
2018-02-18T09:18:03.916Z,102678.09
2018-02-18T09:20:33.017Z,102672.64
2018-02-18T09:23:01.686Z,102680.09
2018-02-18T09:25:30.850Z,102672.39
2018-02-18T09:27:59.260Z,102670.00
2018-02-18T09:30:28.526Z,102669.45
2018-02-18T09:32:56.908Z,102669.63
2018-02-18T09:35:25.370Z,102666.09
2018-02-18T09:37:54.003Z,102671.36
2018-02-18T09:40:23.184Z,102676.30
2018-02-18T09:42:51.597Z,102663.68
2018-02-18T09:45:20.461Z,102669.52
2018-02-18T09:47:49.629Z,102665.70
2018-02-18T09:50:18.112Z,102666.46
2018-02-18T09:52:46.605Z,102663.73
2018-02-18T09:55:14.982Z,102668.19
2018-02-18T09:57:43.464Z,102667.13
2018-02-18T10:00:11.835Z,102670.07
2018-02-18T10:02:40.224Z,102673.58
2018-02-18T10:05:08.689Z,102681.28
2018-02-18T10:07:37.605Z,102679.80
2018-02-18T10:10:06.066Z,102682.89
2018-02-18T10:12:34.525Z,102683.97
2018-02-18T10:15:03.074Z,102672.58
2018-02-18T10:17:32.194Z,102674.22
2018-02-18T10:20:00.619Z,102674.31
2018-02-18T10:22:29.548Z,102692.09
2018-02-18T10:24:58.738Z,102684.56
2018-02-18T10:27:27.838Z,102673.73
2018-02-18T10:29:57.141Z,102675.27
2018-02-18T10:32:25.537Z,102664.81
2018-02-18T10:34:53.975Z,102667.34
2018-02-18T10:37:23.153Z,102664.45
2018-02-18T10:39:51.642Z,102657.83
2018-02-18T10:42:19.980Z,102669.59
2018-02-18T10:44:48.326Z,102662.83
2018-02-18T10:47:17.518Z,102663.63
2018-02-18T10:49:46.080Z,102657.48
2018-02-18T10:52:15.210Z,102664.67
2018-02-18T10:54:44.434Z,102664.95
2018-02-18T10:57:12.839Z,102660.70
2018-02-18T10:59:41.346Z,102651.27
2018-02-18T11:02:09.951Z,102656.75
2018-02-18T11:04:39.046Z,102657.48
2018-02-18T11:07:07.421Z,102653.29
2018-02-18T11:09:35.789Z,102655.30
2018-02-18T11:12:04.213Z,102658.30
2018-02-18T11:14:32.770Z,102646.07
2018-02-18T11:17:01.947Z,102642.74
2018-02-18T11:19:30.407Z,102650.87
2018-02-18T11:21:58.858Z,102648.56
2018-02-18T11:24:27.227Z,102636.22
2018-02-18T11:26:55.605Z,102632.24
2018-02-18T11:29:23.967Z,102623.34
2018-02-18T11:31:52.429Z,102622.14
2018-02-18T11:34:20.939Z,102608.30
2018-02-18T11:36:49.473Z,102605.47
2018-02-18T11:39:17.787Z,102605.87
2018-02-18T11:41:47.870Z,102601.12
2018-02-18T11:44:16.499Z,102615.33
2018-02-18T11:46:44.960Z,102610.58
2018-02-18T11:49:13.440Z,102606.52
2018-02-18T11:51:43.068Z,102615.55
2018-02-18T11:54:12.248Z,102604.12
2018-02-18T11:56:40.598Z,102597.20
2018-02-18T11:59:09.597Z,102606.55
2018-02-18T12:01:37.981Z,102606.13
2018-02-18T12:04:06.481Z,102599.70
2018-02-18T12:06:34.902Z,102599.38
2018-02-18T12:09:03.352Z,102589.16
2018-02-18T12:11:32.547Z,102590.17
2018-02-18T12:14:01.766Z,102578.45
2018-02-18T12:16:30.584Z,102576.00
2018-02-18T12:18:59.737Z,102569.88
2018-02-18T12:21:29.280Z,102574.60
2018-02-18T12:23:57.818Z,102578.10
2018-02-18T12:26:26.271Z,102570.14
2018-02-18T12:28:54.785Z,102558.20
2018-02-18T12:31:23.234Z,102553.28
2018-02-18T12:33:51.622Z,102546.91
2018-02-18T12:36:20.068Z,102538.94
2018-02-18T12:38:48.896Z,102533.75
2018-02-18T12:41:17.350Z,102542.30
2018-02-18T12:43:46.295Z,102550.73
2018-02-18T12:46:14.666Z,102538.25
2018-02-18T12:48:43.085Z,102542.74
2018-02-18T12:51:11.497Z,102540.31
2018-02-18T12:53:39.804Z,102533.14
2018-02-18T12:56:08.155Z,102537.06
2018-02-18T12:58:36.552Z,102529.12
2018-02-18T13:01:04.989Z,102528.19
2018-02-18T13:03:33.327Z,102527.50
2018-02-18T13:06:02.219Z,102528.95
2018-02-18T13:08:30.696Z,102525.16
2018-02-18T13:10:59.119Z,102522.87
2018-02-18T13:13:27.792Z,102508.50
2018-02-18T13:15:56.286Z,102514.30
2018-02-18T13:18:24.705Z,102506.36
2018-02-18T13:20:53.416Z,102504.11
2018-02-18T13:23:21.905Z,102509.27
2018-02-18T13:25:50.450Z,102526.83
2018-02-18T13:28:19.256Z,102505.88
2018-02-18T13:30:47.601Z,102507.97
2018-02-18T13:33:16.030Z,102508.64
2018-02-18T13:35:44.481Z,102501.00
2018-02-18T13:38:12.926Z,102498.80
2018-02-18T13:40:41.313Z,102496.78
2018-02-18T13:43:09.826Z,102484.02
2018-02-18T13:45:38.201Z,102493.09
2018-02-18T13:48:06.639Z,102479.41
2018-02-18T13:50:36.055Z,102486.50
2018-02-18T13:53:04.397Z,102489.57
2018-02-18T13:55:32.741Z,102494.05
2018-02-18T13:58:01.077Z,102483.23
2018-02-18T14:00:29.383Z,102483.13
2018-02-18T14:02:57.717Z,102474.23
2018-02-18T14:05:26.168Z,102472.27
2018-02-18T14:07:54.495Z,102476.56
2018-02-18T14:10:23.764Z,102471.67
2018-02-18T14:12:52.723Z,102482.00
2018-02-18T14:15:21.172Z,102492.20
2018-02-18T14:17:50.288Z,102487.06
2018-02-18T14:20:18.736Z,102486.20
2018-02-18T14:22:48.021Z,102483.16
2018-02-18T14:25:16.463Z,102478.03
2018-02-18T14:27:44.931Z,102483.87
2018-02-18T14:30:13.303Z,102488.27
2018-02-18T14:32:41.742Z,102484.80
2018-02-18T14:35:10.317Z,102483.83
2018-02-18T14:37:38.737Z,102493.55
2018-02-18T14:40:07.095Z,102484.55
2018-02-18T14:42:53.101Z,102485.30
2018-02-18T14:45:38.978Z,102484.32
2018-02-18T14:48:25.710Z,102478.97
2018-02-18T14:51:12.694Z,102486.08
2018-02-18T14:53:58.807Z,102481.79
2018-02-18T14:56:44.745Z,102477.28
2018-02-18T14:59:13.226Z,102485.33
2018-02-18T15:01:41.642Z,102492.06
2018-02-18T15:04:10.125Z,102475.03
2018-02-18T15:06:38.600Z,102485.34
2018-02-18T15:09:06.984Z,102467.63
2018-02-18T15:11:35.402Z,102465.13
2018-02-18T15:14:04.357Z,102472.80
2018-02-18T15:16:32.770Z,102468.06
2018-02-18T15:19:01.100Z,102467.27
2018-02-18T15:21:29.562Z,102471.63
2018-02-18T15:23:58.015Z,102465.11
2018-02-18T15:26:26.559Z,102477.17
2018-02-18T15:28:54.943Z,102468.06
2018-02-18T15:31:23.541Z,102467.45
2018-02-18T15:33:51.918Z,102470.71
2018-02-18T15:36:21.245Z,102471.45
2018-02-18T15:38:49.582Z,102461.13
2018-02-18T15:41:17.918Z,102466.64
2018-02-18T15:43:46.275Z,102456.60
2018-02-18T15:46:15.366Z,102457.77
2018-02-18T15:48:44.466Z,102447.52
2018-02-18T15:51:13.594Z,102453.05
2018-02-18T15:53:41.964Z,102460.27
2018-02-18T15:56:10.757Z,102461.58
2018-02-18T15:58:39.306Z,102460.25
2018-02-18T16:01:08.376Z,102460.63
2018-02-18T16:03:36.779Z,102461.06
2018-02-18T16:06:05.949Z,102457.06
2018-02-18T16:08:34.258Z,102456.09
2018-02-18T16:11:03.400Z,102453.81
2018-02-18T16:13:31.770Z,102447.01
2018-02-18T16:16:00.146Z,102454.61
2018-02-18T16:18:28.503Z,102452.55
2018-02-18T16:20:56.937Z,102451.58
2018-02-18T16:23:25.298Z,102448.81
2018-02-18T16:25:53.619Z,102448.97
2018-02-18T16:28:22.707Z,102448.28
2018-02-18T16:30:51.082Z,102440.69
2018-02-18T16:33:19.361Z,102430.80
2018-02-18T16:35:47.725Z,102433.61
2018-02-18T16:38:16.059Z,102428.68
2018-02-18T16:40:44.400Z,102429.08
2018-02-18T16:43:13.139Z,102432.31
2018-02-18T16:45:41.430Z,102436.58
2018-02-18T16:48:10.528Z,102444.06
2018-02-18T16:50:38.912Z,102442.33
2018-02-18T16:53:07.258Z,102443.84
2018-02-18T16:55:35.647Z,102444.30
2018-02-18T16:58:04.320Z,102442.05
2018-02-18T17:00:32.645Z,102432.11
2018-02-18T17:03:00.961Z,102426.53
2018-02-18T17:05:29.646Z,102423.66
2018-02-18T17:07:57.966Z,102426.31
2018-02-18T17:10:26.275Z,102427.79
2018-02-18T17:12:54.643Z,102426.55
2018-02-18T17:15:23.029Z,102429.63
2018-02-18T17:17:51.374Z,102427.66
2018-02-18T17:20:19.742Z,102425.05
2018-02-18T17:22:48.066Z,102427.27
2018-02-18T17:25:16.431Z,102425.30
2018-02-18T17:27:44.858Z,102430.59
2018-02-18T17:30:13.179Z,102436.11
2018-02-18T17:32:41.536Z,102433.37
2018-02-18T17:35:09.937Z,102433.14
2018-02-18T17:37:38.357Z,102426.56
2018-02-18T17:40:07.532Z,102427.61
2018-02-18T17:42:35.925Z,102424.05
2018-02-18T17:45:04.387Z,102423.25
2018-02-18T17:47:32.803Z,102415.66
2018-02-18T17:50:01.573Z,102418.53
2018-02-18T17:52:29.996Z,102421.70
2018-02-18T17:55:00.723Z,102420.65
2018-02-18T17:57:29.213Z,102420.98
2018-02-18T17:59:57.983Z,102417.23
2018-02-18T18:02:26.846Z,102410.46
2018-02-18T18:04:58.607Z,102408.02
2018-02-18T18:07:27.220Z,102415.08
2018-02-18T18:09:55.838Z,102409.98
2018-02-18T18:12:25.005Z,102412.04
2018-02-18T18:14:53.671Z,102411.08
2018-02-18T18:17:22.069Z,102407.33
2018-02-18T18:19:50.563Z,102412.52
2018-02-18T18:22:19.095Z,102405.45
2018-02-18T18:24:47.543Z,102406.75
2018-02-18T18:27:16.075Z,102413.85
2018-02-18T18:29:44.464Z,102403.13
2018-02-18T18:32:13.819Z,102401.84
2018-02-18T18:34:42.430Z,102404.23
2018-02-18T18:37:10.743Z,102398.86
2018-02-18T18:39:40.002Z,102407.17
2018-02-18T18:42:09.323Z,102401.78
2018-02-18T18:44:37.721Z,102394.31
2018-02-18T18:47:06.094Z,102396.00
2018-02-18T18:49:35.377Z,102387.48
2018-02-18T18:52:03.764Z,102390.27
2018-02-18T18:54:32.079Z,102388.30
2018-02-18T18:57:01.217Z,102391.14
2018-02-18T18:59:30.196Z,102384.00
2018-02-18T19:01:58.603Z,102380.56
2018-02-18T19:04:26.994Z,102380.20
2018-02-18T19:06:55.314Z,102379.33
2018-02-18T19:09:23.649Z,102381.66
2018-02-18T19:11:52.084Z,102375.56
2018-02-18T19:14:20.502Z,102371.94
2018-02-18T19:16:48.886Z,102372.36
2018-02-18T19:19:17.726Z,102380.05
2018-02-18T19:21:46.070Z,102373.10
2018-02-18T19:24:15.194Z,102376.13
2018-02-18T19:26:43.551Z,102376.38
2018-02-18T19:29:11.904Z,102369.09
2018-02-18T19:31:40.249Z,102369.41
2018-02-18T19:34:08.598Z,102356.13
2018-02-18T19:36:36.929Z,102357.38
2018-02-18T19:39:05.283Z,102349.16
2018-02-18T19:41:33.866Z,102349.55
2018-02-18T19:44:02.244Z,102354.08
2018-02-18T19:46:30.598Z,102344.50
2018-02-18T19:48:58.953Z,102341.13
2018-02-18T19:51:27.387Z,102336.98
2018-02-18T19:53:55.788Z,102335.72
2018-02-18T19:56:24.160Z,102333.02
2018-02-18T19:58:52.517Z,102336.70
2018-02-18T20:01:21.048Z,102327.96
2018-02-18T20:03:50.029Z,102330.25
2018-02-18T20:06:18.484Z,102331.89
2018-02-18T20:08:46.806Z,102326.36
2018-02-18T20:11:15.864Z,102318.97
2018-02-18T20:13:45.488Z,102318.83
2018-02-18T20:16:14.162Z,102320.91
2018-02-18T20:18:42.514Z,102319.44
2018-02-18T20:21:10.870Z,102314.85
2018-02-18T20:23:39.966Z,102314.05
2018-02-18T20:26:09.220Z,102317.88
2018-02-18T20:28:37.574Z,102326.08
2018-02-18T20:31:05.876Z,102314.09
2018-02-18T20:33:34.267Z,102319.91
2018-02-18T20:36:02.593Z,102320.78
2018-02-18T20:38:30.902Z,102325.89
2018-02-18T20:40:59.280Z,102324.59
2018-02-18T20:43:27.613Z,102321.56
2018-02-18T20:45:56.678Z,102328.17
2018-02-18T20:48:25.243Z,102322.42
2018-02-18T20:50:53.608Z,102326.57
2018-02-18T20:53:21.997Z,102323.16
2018-02-18T20:55:50.556Z,102316.02
2018-02-18T20:58:18.879Z,102319.14
2018-02-18T21:00:47.226Z,102314.16
2018-02-18T21:03:15.885Z,102320.39
2018-02-18T21:05:44.977Z,102316.50
2018-02-18T21:08:14.069Z,102310.18
2018-02-18T21:10:43.637Z,102310.13
2018-02-18T21:13:11.982Z,102309.09
2018-02-18T21:15:40.308Z,102310.44
2018-02-18T21:18:08.716Z,102301.01
2018-02-18T21:20:37.045Z,102306.38
2018-02-18T21:23:05.393Z,102305.33
2018-02-18T21:25:33.782Z,102308.02
2018-02-18T21:28:02.149Z,102306.41
2018-02-18T21:30:30.479Z,102303.60
2018-02-18T21:32:59.125Z,102304.63
2018-02-18T21:35:27.483Z,102304.59
2018-02-18T21:37:55.837Z,102306.05
2018-02-18T21:40:24.279Z,102305.00
2018-02-18T21:42:52.627Z,102304.09
2018-02-18T21:45:20.945Z,102297.19
2018-02-18T21:47:49.378Z,102296.93
2018-02-18T21:50:18.664Z,102299.84
2018-02-18T21:52:47.740Z,102301.91
2018-02-18T21:55:16.290Z,102296.64
2018-02-18T21:57:44.609Z,102290.88
2018-02-18T22:00:12.943Z,102289.37
2018-02-18T22:02:41.265Z,102287.03
2018-02-18T22:05:09.601Z,102277.81
2018-02-18T22:07:37.950Z,102277.04
2018-02-18T22:10:06.318Z,102279.59
2018-02-18T22:12:35.396Z,102281.16
2018-02-18T22:15:04.625Z,102279.89
2018-02-18T22:17:33.373Z,102279.42
2018-02-18T22:20:01.711Z,102277.22
2018-02-18T22:22:30.068Z,102279.58
2018-02-18T22:24:58.438Z,102271.94
2018-02-18T22:27:27.531Z,102275.91
2018-02-18T22:29:56.629Z,102269.30
2018-02-18T22:32:25.768Z,102270.20
2018-02-18T22:34:54.086Z,102271.20
2018-02-18T22:37:22.422Z,102272.02
2018-02-18T22:39:50.886Z,102274.05
2018-02-18T22:42:19.224Z,102269.04
2018-02-18T22:44:47.525Z,102264.97
2018-02-18T22:47:16.640Z,102269.43
2018-02-18T22:49:44.981Z,102270.47
2018-02-18T22:52:13.303Z,102268.47
2018-02-18T22:54:41.650Z,102270.64
2018-02-18T22:57:09.973Z,102266.45
2018-02-18T22:59:38.291Z,102268.70
2018-02-18T23:02:06.999Z,102266.92
2018-02-18T23:04:36.100Z,102269.20
2018-02-18T23:07:07.304Z,102267.22
2018-02-18T23:09:35.669Z,102268.63
2018-02-18T23:12:04.001Z,102261.46
2018-02-18T23:14:33.102Z,102261.73
2018-02-18T23:17:01.458Z,102261.06
2018-02-18T23:19:30.520Z,102258.50
2018-02-18T23:21:58.831Z,102256.72
2018-02-18T23:24:27.448Z,102262.73
2018-02-18T23:26:55.779Z,102252.88
2018-02-18T23:29:24.083Z,102251.53
2018-02-18T23:31:53.219Z,102252.05
2018-02-18T23:34:21.554Z,102253.94
2018-02-18T23:36:50.628Z,102247.66
2018-02-18T23:39:18.984Z,102245.97
2018-02-18T23:41:47.306Z,102245.78
2018-02-18T23:44:16.432Z,102241.91
2018-02-18T23:46:45.192Z,102242.26
2018-02-18T23:49:13.516Z,102249.28
2018-02-18T23:51:41.838Z,102247.03
2018-02-18T23:54:10.204Z,102241.76
2018-02-18T23:56:38.540Z,102240.16
2018-02-18T23:59:06.852Z,102242.16
